Ana Sayfa
METAR-TAF:

METAR-TAF

Havaalanları :

Vinnitsya, Ukrayna

Enlem: 49-14-23N, Boylam: 028-36-50E, yükseklik: 974 m

Güncel hava durumu gözlemi

Rapor saat 18:00 UTC de 9 saat ve 54 dakika önce yapıldı.
Rüzgar kuzeybatıdan 8 kt
Sıcaklık 2°C
Nem 80%
Basınç 1001 hPa
Görüş mesafesi 10 km veya daha fazla

METAR: UKWW 271800Z 31004MPS 9999 NSC 02/M01 Q1001 NOSIG

Saat: 05:54 (03:54 UTC)

Tahmin

Rapor saat 17:10 UTC de 10 saat ve 44 dakika önce yapıldı.
Ayın 27'si saat 18 UTC'den ayın 28'si saat 03 UTC'ye kadar geçerli Tahmin
Rüzgar güney/güneybatıdan 6 kt ve 16 kt'a kadar ani rüzgarlar
Görüş mesafesi 10 km veya daha fazla
2000 ft yükseklikte parçalı çok bulutlu

TAF: UKWW 271710Z 2718/2803 21003G08MPS 9999 BKN020 TX02/2718Z TN00/2803Z

4.000'den fazla havaalanı için hava durumu gözlemleri ve tahminleri (METAR ve TAF raporları).

Kullanılabilir istasyonlar harita üzerinde sarı ve kırmızı noktalarla gösterilir.

İstasyonun adını görmek için fareyi noktanın üzerinde gezdirin.

Sonrasında hava gözlem ve tahminlerini görmek için tıklayın.

Haritayı değiştirmek için: yaklaştırmak için siyah artı işaretli yeşil düğmeye ve uzaklaştırmak için de eksi işaretli düğmeye hızla tıklayın; bitişik haritalar için yeşil okları kullanın.


METAR-TAF: